Time;durP1;ratioP1;P1;durP2;ratioP2;P2;SDS_P1;SDS_P2;PMS_P1;PMS_P2;Temp;Humidity;BMP_temperature;BMP_pressure;BME280_temperature;BME280_humidity;BME280_pressure;Samples;Min_cycle;Max_cycle;Signal;HPM_P1;HPM_P2
2022/01/07 00:00:00;;;;;;;8.30;1.67;;;0.70;99.90;;;;;;4439264;32;20073;-68
2022/01/07 00:02:26;;;;;;;0.50;0.50;;;0.80;99.90;;;;;;4441978;32;20064;-68
2022/01/07 00:04:54;;;;;;;2.75;1.75;;;0.70;99.90;;;;;;4442391;32;20112;-68
2022/01/07 00:07:20;;;;;;;0.80;0.80;;;0.50;99.90;;;;;;4434721;32;20084;-67
2022/01/07 00:09:45;;;;;;;0.40;0.40;;;0.50;99.90;;;;;;4443781;32;20124;-68
2022/01/07 00:12:11;;;;;;;0.40;0.40;;;0.40;99.90;;;;;;4442101;32;20104;-68
2022/01/07 00:14:37;;;;;;;0.60;0.60;;;0.40;99.90;;;;;;4441618;32;20104;-68
2022/01/07 00:17:03;;;;;;;0.43;0.43;;;0.50;99.90;;;;;;4441513;32;20069;-68
2022/01/07 00:19:28;;;;;;;0.60;0.60;;;0.40;99.90;;;;;;4441707;32;20532;-69
2022/01/07 00:21:54;;;;;;;0.40;0.40;;;0.40;99.90;;;;;;4442415;32;20108;-68
2022/01/07 00:24:19;;;;;;;0.57;0.57;;;0.50;99.90;;;;;;4447702;32;20077;-67
2022/01/07 00:26:45;;;;;;;0.50;0.50;;;0.50;99.90;;;;;;4440729;32;20127;-67
2022/01/07 00:29:10;;;;;;;0.50;0.50;;;0.50;99.90;;;;;;4439755;32;20065;-67
2022/01/07 00:31:36;;;;;;;0.40;0.40;;;0.60;99.90;;;;;;4445143;32;20061;-68
2022/01/07 00:34:01;;;;;;;0.70;0.70;;;0.30;99.90;;;;;;4441373;32;20587;-68
2022/01/07 00:36:27;;;;;;;0.50;0.50;;;0.30;99.90;;;;;;4441476;32;20060;-68
2022/01/07 00:38:53;;;;;;;0.57;0.57;;;0.40;99.90;;;;;;4438092;32;20601;-68
2022/01/07 00:41:18;;;;;;;1.50;1.40;;;0.50;99.90;;;;;;4440673;32;20061;-68
2022/01/07 00:43:44;;;;;;;1.17;0.75;;;0.50;99.90;;;;;;4440573;32;20548;-68
2022/01/07 00:46:09;;;;;;;0.43;0.43;;;0.50;99.90;;;;;;4440740;32;20078;-68
2022/01/07 00:48:35;;;;;;;0.82;0.70;;;0.50;99.90;;;;;;4439184;32;20131;-68
2022/01/07 00:51:00;;;;;;;0.57;0.57;;;0.60;99.90;;;;;;4440122;32;20513;-68
2022/01/07 00:53:26;;;;;;;2.25;0.80;;;0.70;99.90;;;;;;4446070;32;20187;-68
2022/01/07 00:55:51;;;;;;;1.48;0.88;;;0.60;99.90;;;;;;4444015;32;20073;-68
2022/01/07 00:58:17;;;;;;;0.65;0.65;;;0.70;99.90;;;;;;4442328;32;20822;-67
2022/01/07 01:00:42;;;;;;;0.50;0.50;;;0.60;99.90;;;;;;4443632;32;20586;-69
2022/01/07 01:03:08;;;;;;;0.40;0.40;;;0.30;99.90;;;;;;4447619;32;20113;-67
2022/01/07 01:05:33;;;;;;;0.88;0.88;;;0.20;99.90;;;;;;4433962;32;20072;-68
2022/01/07 01:07:59;;;;;;;0.43;0.43;;;0.20;99.90;;;;;;4445525;32;20076;-68
2022/01/07 01:10:25;;;;;;;0.50;0.50;;;0.30;99.90;;;;;;4443901;32;20077;-68
2022/01/07 01:12:52;;;;;;;0.40;0.40;;;0.30;99.90;;;;;;4444379;32;20312;-68
2022/01/07 01:15:22;;;;;;;0.45;0.45;;;0.40;99.90;;;;;;4441787;32;20077;-69
2022/01/07 01:17:49;;;;;;;0.85;0.85;;;0.50;99.90;;;;;;4433549;32;20069;-67
2022/01/07 01:20:14;;;;;;;0.70;0.70;;;0.60;99.90;;;;;;4438486;32;20139;-67
2022/01/07 01:22:40;;;;;;;1.65;0.93;;;0.50;99.90;;;;;;4446184;32;20498;-67
2022/01/07 01:25:07;;;;;;;1.92;1.75;;;0.50;99.90;;;;;;4441796;32;20081;-68
2022/01/07 01:27:33;;;;;;;0.70;0.70;;;0.50;99.90;;;;;;4436216;32;20529;-69
2022/01/07 01:30:00;;;;;;;0.80;0.80;;;0.40;99.90;;;;;;4441599;32;20236;-68
2022/01/07 01:32:26;;;;;;;0.50;0.50;;;0.20;99.90;;;;;;4443300;32;20065;-68
2022/01/07 01:34:52;;;;;;;1.05;1.02;;;0.10;99.90;;;;;;4443890;32;20074;-68
2022/01/07 01:37:17;;;;;;;0.47;0.47;;;0.20;99.90;;;;;;4444576;32;20157;-68
2022/01/07 01:39:42;;;;;;;0.62;0.62;;;0.20;99.90;;;;;;4442780;32;20077;-67
2022/01/07 01:42:08;;;;;;;0.77;0.77;;;0.10;99.90;;;;;;4442604;32;20072;-68
2022/01/07 01:44:34;;;;;;;3.78;2.10;;;0.20;99.90;;;;;;4446602;32;20081;-68
2022/01/07 01:46:59;;;;;;;1.25;1.15;;;0.20;99.90;;;;;;4442727;32;20956;-67
2022/01/07 01:49:24;;;;;;;3.78;1.90;;;0.10;99.90;;;;;;4442011;32;20081;-68
2022/01/07 01:51:50;;;;;;;0.50;0.50;;;0.10;99.90;;;;;;4441049;32;20553;-67
2022/01/07 01:54:16;;;;;;;0.40;0.40;;;0.20;99.90;;;;;;4441329;32;20065;-67
2022/01/07 01:56:41;;;;;;;1.30;1.20;;;0.20;99.90;;;;;;4441867;32;20411;-69
2022/01/07 01:59:08;;;;;;;1.98;1.77;;;0.20;99.90;;;;;;4445335;32;20069;-68
2022/01/07 02:01:34;;;;;;;6.03;1.23;;;0.20;99.90;;;;;;4435591;32;20903;-68
2022/01/07 02:04:00;;;;;;;0.40;0.40;;;0.20;99.90;;;;;;4445077;32;20122;-68
2022/01/07 02:06:26;;;;;;;0.88;0.88;;;0.00;99.90;;;;;;4435054;32;20103;-67
2022/01/07 02:08:52;;;;;;;2.08;1.55;;;0.10;99.90;;;;;;4443133;32;20654;-68
2022/01/07 02:11:18;;;;;;;0.45;0.45;;;0.10;99.90;;;;;;4436076;32;20089;-68
2022/01/07 02:13:46;;;;;;;0.40;0.40;;;0.10;99.90;;;;;;4429558;32;20431;-69
2022/01/07 02:16:13;;;;;;;0.30;0.30;;;0.10;99.90;;;;;;4443513;32;20100;-68
2022/01/07 02:18:38;;;;;;;1.20;1.10;;;0.10;99.90;;;;;;4448497;32;20073;-68
2022/01/07 02:21:04;;;;;;;0.70;0.70;;;0.20;99.90;;;;;;4442230;32;20093;-67
2022/01/07 02:23:29;;;;;;;0.55;0.55;;;0.30;99.90;;;;;;4444740;32;20139;-67
2022/01/07 02:25:56;;;;;;;1.77;1.27;;;0.20;99.90;;;;;;4441468;32;20431;-68
2022/01/07 02:28:22;;;;;;;0.95;0.90;;;0.00;99.90;;;;;;4436736;32;20092;-68
2022/01/07 02:30:48;;;;;;;0.70;0.70;;;0.00;99.90;;;;;;4439128;32;20096;-67
2022/01/07 02:33:13;;;;;;;0.73;0.73;;;0.00;99.90;;;;;;4441173;32;20143;-68
2022/01/07 02:35:45;;;;;;;0.40;0.40;;;0.00;99.90;;;;;;4443009;32;20093;-67
2022/01/07 02:38:11;;;;;;;0.80;0.80;;;0.10;99.90;;;;;;4442597;32;20516;-67
2022/01/07 02:40:36;;;;;;;0.35;0.35;;;0.20;99.90;;;;;;4442416;32;20093;-68
2022/01/07 02:43:02;;;;;;;0.65;0.65;;;0.10;99.90;;;;;;4440325;32;20444;-67
2022/01/07 02:45:27;;;;;;;0.50;0.50;;;0.20;99.90;;;;;;4446681;32;20064;-68
2022/01/07 02:47:54;;;;;;;0.52;0.52;;;0.10;99.90;;;;;;4443871;32;20088;-67
2022/01/07 02:50:27;;;;;;;0.73;0.65;;;0.10;99.90;;;;;;4446816;32;20160;-67
2022/01/07 02:52:54;;;;;;;0.50;0.50;;;0.20;99.90;;;;;;4435755;32;20085;-68
2022/01/07 02:55:20;;;;;;;0.50;0.50;;;0.20;99.90;;;;;;4440447;32;20065;-67
2022/01/07 02:57:46;;;;;;;0.47;0.47;;;0.20;99.90;;;;;;4440971;32;20446;-68
2022/01/07 03:00:12;;;;;;;0.60;0.60;;;0.20;99.90;;;;;;4442942;32;20061;-68
2022/01/07 03:02:38;;;;;;;0.40;0.40;;;0.10;99.90;;;;;;4445008;32;20085;-67
2022/01/07 03:05:05;;;;;;;8.10;1.48;;;0.10;99.90;;;;;;4442045;32;20431;-68
2022/01/07 03:07:31;;;;;;;0.52;0.52;;;0.20;99.90;;;;;;4442289;32;20060;-68
2022/01/07 03:09:56;;;;;;;0.47;0.47;;;0.20;99.90;;;;;;4440680;32;20514;-67
2022/01/07 03:12:22;;;;;;;1.08;1.05;;;0.30;99.90;;;;;;4434774;32;20071;-68
2022/01/07 03:14:49;;;;;;;2.45;1.05;;;0.20;99.90;;;;;;4442027;32;20069;-67
2022/01/07 03:17:15;;;;;;;0.50;0.50;;;0.20;99.90;;;;;;4442576;32;20587;-68
2022/01/07 03:19:41;;;;;;;0.55;0.55;;;0.10;99.90;;;;;;4442993;32;20081;-68
2022/01/07 03:22:06;;;;;;;0.43;0.43;;;0.20;99.90;;;;;;4442694;32;20543;-68
2022/01/07 03:24:32;;;;;;;0.73;0.73;;;0.10;99.90;;;;;;4441188;32;20093;-68
2022/01/07 03:26:57;;;;;;;1.98;1.20;;;0.20;99.90;;;;;;4442380;32;20465;-68
2022/01/07 03:29:23;;;;;;;0.50;0.50;;;0.20;99.90;;;;;;4442067;32;20096;-67
2022/01/07 03:31:48;;;;;;;0.60;0.60;;;0.10;99.90;;;;;;4443273;32;20420;-67
2022/01/07 03:34:14;;;;;;;0.70;0.70;;;0.00;99.90;;;;;;4446321;32;20124;-68
2022/01/07 03:36:39;;;;;;;0.43;0.43;;;0.00;99.90;;;;;;4442923;32;20076;-67
2022/01/07 03:39:06;;;;;;;2.08;1.58;;;0.00;99.90;;;;;;4441591;32;20077;-67
2022/01/07 03:41:31;;;;;;;0.43;0.43;;;0.00;99.90;;;;;;4435239;32;20069;-68
2022/01/07 03:43:57;;;;;;;0.90;0.90;;;-0.10;99.90;;;;;;4441051;32;20081;-68
2022/01/07 03:46:23;;;;;;;0.40;0.40;;;0.00;99.90;;;;;;4437684;32;20524;-68
2022/01/07 03:48:49;;;;;;;1.35;0.88;;;-0.10;99.90;;;;;;4445382;32;20085;-68
2022/01/07 03:51:14;;;;;;;0.52;0.52;;;0.00;99.90;;;;;;4445089;32;20073;-67
2022/01/07 03:53:40;;;;;;;0.50;0.50;;;0.00;99.90;;;;;;4443324;32;20482;-67
2022/01/07 03:56:05;;;;;;;0.40;0.40;;;0.00;99.90;;;;;;4440597;32;20061;-68
2022/01/07 03:58:31;;;;;;;3.35;1.33;;;0.00;99.90;;;;;;4444000;32;20481;-68
2022/01/07 04:00:56;;;;;;;0.50;0.50;;;0.10;99.90;;;;;;4442125;32;20081;-68
2022/01/07 04:03:22;;;;;;;0.70;0.70;;;0.10;99.90;;;;;;4441823;32;20093;-68
2022/01/07 04:05:47;;;;;;;1.75;1.42;;;0.20;99.90;;;;;;4440393;32;20076;-66
2022/01/07 04:08:13;;;;;;;0.43;0.43;;;0.20;99.90;;;;;;4443867;32;20068;-67
2022/01/07 04:10:40;;;;;;;0.40;0.40;;;0.10;99.90;;;;;;4441826;32;20062;-67
2022/01/07 04:13:06;;;;;;;0.60;0.60;;;0.00;99.90;;;;;;4437610;32;20073;-68
2022/01/07 04:15:32;;;;;;;1.00;1.00;;;0.10;99.90;;;;;;4440936;32;20426;-68
2022/01/07 04:17:57;;;;;;;1.40;1.17;;;0.00;99.90;;;;;;4440098;32;20061;-68
2022/01/07 04:20:26;;;;;;;0.37;0.37;;;0.00;99.90;;;;;;4443181;32;20203;-67
2022/01/07 04:22:52;;;;;;;1.30;1.00;;;0.10;99.90;;;;;;4446186;32;20549;-68
2022/01/07 04:25:20;;;;;;;0.40;0.40;;;0.20;99.90;;;;;;4441954;32;20503;-68
2022/01/07 04:27:51;;;;;;;6.03;2.00;;;0.20;99.90;;;;;;4442005;32;20116;-69
2022/01/07 04:30:17;;;;;;;;;;;0.20;99.90;;;;;;4444011;32;20077;-68
2022/01/07 04:32:43;;;;;;;1.77;1.12;;;0.10;99.90;;;;;;4441263;32;81892;-68
2022/01/07 04:35:10;;;;;;;0.98;0.98;;;0.20;99.90;;;;;;4434646;32;20780;-68
2022/01/07 04:37:37;;;;;;;0.50;0.50;;;0.20;99.90;;;;;;4442722;32;20198;-67
2022/01/07 04:40:06;;;;;;;0.40;0.40;;;0.40;99.90;;;;;;4437320;32;20061;-67
2022/01/07 04:42:31;;;;;;;0.40;0.40;;;0.30;99.90;;;;;;4444913;32;20556;-68
2022/01/07 04:44:57;;;;;;;1.05;0.57;;;0.30;99.90;;;;;;4442207;32;20078;-68
2022/01/07 04:47:22;;;;;;;1.25;1.15;;;0.40;99.90;;;;;;4441958;32;20107;-67
2022/01/07 04:49:48;;;;;;;0.50;0.50;;;0.40;99.90;;;;;;4446726;32;20096;-68
2022/01/07 04:52:13;;;;;;;0.40;0.40;;;0.40;99.90;;;;;;4443233;32;20089;-68
2022/01/07 04:54:39;;;;;;;0.50;0.50;;;0.50;99.90;;;;;;4443743;32;20085;-67
2022/01/07 04:57:04;;;;;;;2.33;1.85;;;0.40;99.90;;;;;;4441632;32;20088;-68
2022/01/07 04:59:30;;;;;;;0.90;0.90;;;0.30;99.90;;;;;;4434566;32;20406;-67
2022/01/07 05:01:55;;;;;;;0.40;0.40;;;0.30;99.90;;;;;;4445174;32;20100;-68
2022/01/07 05:04:21;;;;;;;0.40;0.40;;;0.40;99.90;;;;;;4445262;32;20093;-67
2022/01/07 05:06:47;;;;;;;1.83;1.48;;;0.40;99.90;;;;;;4445078;32;20069;-68
2022/01/07 05:09:16;;;;;;;1.42;1.33;;;0.40;99.90;;;;;;4443759;32;20098;-68
2022/01/07 05:11:47;;;;;;;1.75;0.90;;;0.40;99.90;;;;;;4436724;32;20093;-68
2022/01/07 05:14:14;;;;;;;0.55;0.55;;;0.40;99.90;;;;;;4428831;32;21330;-68
2022/01/07 05:16:40;;;;;;;1.55;0.95;;;0.40;99.90;;;;;;4442736;32;20093;-67
2022/01/07 05:19:06;;;;;;;5.47;2.30;;;0.40;99.90;;;;;;4435222;32;20089;-68
2022/01/07 05:21:31;;;;;;;0.40;0.40;;;0.50;99.90;;;;;;4438931;32;21150;-68
2022/01/07 05:23:57;;;;;;;0.40;0.40;;;0.50;99.90;;;;;;4435754;32;20470;-68
2022/01/07 05:26:23;;;;;;;0.57;0.57;;;0.50;99.90;;;;;;4433844;32;20069;-68
2022/01/07 05:28:50;;;;;;;0.50;0.50;;;0.50;99.90;;;;;;4442225;32;20439;-66
2022/01/07 05:31:17;;;;;;;0.40;0.40;;;0.50;99.90;;;;;;4437987;32;20574;-67
2022/01/07 05:33:43;;;;;;;0.43;0.43;;;0.50;99.90;;;;;;4439191;32;20171;-67
2022/01/07 05:36:08;;;;;;;0.40;0.40;;;0.50;99.90;;;;;;4437959;32;20505;-69
2022/01/07 05:38:34;;;;;;;0.43;0.43;;;0.50;99.90;;;;;;4438828;32;20528;-67
2022/01/07 05:40:59;;;;;;;0.45;0.45;;;0.60;99.90;;;;;;4437835;32;20089;-67
2022/01/07 05:43:26;;;;;;;0.50;0.50;;;0.60;99.90;;;;;;4438370;32;20073;-67
2022/01/07 05:45:52;;;;;;;0.43;0.43;;;0.50;99.90;;;;;;4438726;32;20081;-67
2022/01/07 05:48:17;;;;;;;0.95;0.95;;;0.50;99.90;;;;;;4439756;32;20135;-67
2022/01/07 05:50:43;;;;;;;0.40;0.40;;;0.50;99.90;;;;;;4437870;32;20069;-67
2022/01/07 05:53:10;;;;;;;0.40;0.40;;;0.60;99.90;;;;;;4441166;32;20148;-67
2022/01/07 05:55:35;;;;;;;0.55;0.55;;;0.70;99.90;;;;;;4432918;32;20130;-68
2022/01/07 05:58:01;;;;;;;0.43;0.43;;;0.70;99.90;;;;;;4417898;32;20171;-69
2022/01/07 06:00:26;;;;;;;0.55;0.55;;;0.70;99.90;;;;;;4434604;32;20072;-67
2022/01/07 06:02:53;;;;;;;0.40;0.40;;;0.70;99.90;;;;;;4431283;32;20414;-67
2022/01/07 06:05:19;;;;;;;0.40;0.40;;;0.70;99.90;;;;;;4434405;32;20092;-67
2022/01/07 06:07:44;;;;;;;0.45;0.45;;;0.70;99.90;;;;;;4441493;32;20454;-68
2022/01/07 06:10:10;;;;;;;2.08;1.20;;;0.60;99.90;;;;;;4438270;32;20358;-68
2022/01/07 06:12:35;;;;;;;0.70;0.70;;;0.60;99.90;;;;;;4433669;32;20104;-67
2022/01/07 06:15:02;;;;;;;0.50;0.50;;;0.70;99.90;;;;;;4440585;32;20116;-68
2022/01/07 06:17:28;;;;;;;0.70;0.70;;;0.60;99.90;;;;;;4422865;32;20089;-69
2022/01/07 06:19:53;;;;;;;0.65;0.65;;;0.60;99.90;;;;;;4433095;32;20466;-67
2022/01/07 06:22:19;;;;;;;0.47;0.47;;;0.70;99.90;;;;;;4440337;32;20120;-67
2022/01/07 06:24:47;;;;;;;2.17;1.08;;;0.80;99.90;;;;;;4437097;32;20529;-68
2022/01/07 06:27:12;;;;;;;6.55;2.08;;;0.80;99.90;;;;;;4423316;32;20497;-67
2022/01/07 06:29:39;;;;;;;0.40;0.40;;;0.80;99.90;;;;;;4424782;32;20410;-68
2022/01/07 06:32:06;;;;;;;1.27;0.95;;;0.80;99.90;;;;;;4412922;32;20086;-67
2022/01/07 06:34:32;;;;;;;0.40;0.40;;;0.90;99.90;;;;;;4434451;32;20085;-69
2022/01/07 06:36:59;;;;;;;0.50;0.50;;;0.90;99.90;;;;;;4424928;32;20073;-68
2022/01/07 06:39:28;;;;;;;0.37;0.37;;;0.80;99.90;;;;;;4425299;32;20158;-68
2022/01/07 06:41:57;;;;;;;0.40;0.40;;;0.80;99.90;;;;;;4423271;32;20524;-67
2022/01/07 06:44:23;;;;;;;2.10;1.10;;;0.90;99.90;;;;;;4422908;32;20088;-67
2022/01/07 06:46:49;;;;;;;0.50;0.50;;;0.90;99.90;;;;;;4429842;32;20098;-68
2022/01/07 06:49:14;;;;;;;0.50;0.50;;;1.00;99.90;;;;;;4418963;32;21047;-67
2022/01/07 06:51:41;;;;;;;1.95;1.15;;;0.90;99.90;;;;;;4421264;32;20089;-68
2022/01/07 06:54:11;;;;;;;0.70;0.70;;;0.90;99.90;;;;;;4427516;32;20866;-67
2022/01/07 06:56:40;;;;;;;0.43;0.43;;;1.00;99.90;;;;;;4425870;32;20159;-67
2022/01/07 06:59:06;;;;;;;2.03;0.83;;;1.00;99.90;;;;;;4422082;32;20611;-68
2022/01/07 07:01:33;;;;;;;0.55;0.55;;;1.00;99.90;;;;;;4414351;32;20105;-67
2022/01/07 07:03:59;;;;;;;0.45;0.45;;;0.90;99.90;;;;;;4429614;32;20085;-68
2022/01/07 07:06:24;;;;;;;0.62;0.62;;;1.00;99.90;;;;;;4429369;32;20734;-68
2022/01/07 07:08:50;;;;;;;0.68;0.68;;;1.00;99.90;;;;;;4425111;32;20097;-66
2022/01/07 07:11:16;;;;;;;2.47;1.55;;;0.90;99.90;;;;;;4423560;32;20101;-67
2022/01/07 07:13:41;;;;;;;0.30;0.30;;;1.00;99.90;;;;;;4435343;32;20081;-67
2022/01/07 07:16:07;;;;;;;0.40;0.40;;;1.00;99.90;;;;;;4430823;32;20192;-68
2022/01/07 07:18:32;;;;;;;0.50;0.50;;;1.00;99.90;;;;;;4432588;32;20104;-67
2022/01/07 07:20:58;;;;;;;0.50;0.50;;;1.00;99.90;;;;;;4428205;32;20065;-69
2022/01/07 07:23:24;;;;;;;0.82;0.82;;;1.00;99.90;;;;;;4428437;32;20120;-67
2022/01/07 07:25:51;;;;;;;1.20;0.95;;;0.90;99.90;;;;;;4427669;32;20081;-67
2022/01/07 07:28:16;;;;;;;0.30;0.30;;;1.00;99.90;;;;;;4427161;32;20584;-68
2022/01/07 07:30:42;;;;;;;1.05;1.00;;;1.00;99.90;;;;;;4427421;32;20110;-66
2022/01/07 07:36:54;;;;;;;0.50;0.50;;;1.00;99.90;;;;;;4430191;32;20065;-67
2022/01/07 07:38:41;;;;;;;0.40;0.40;;;1.00;99.90;;;;;;4429502;32;20227;-67
2022/01/07 07:41:07;;;;;;;0.40;0.40;;;1.10;99.90;;;;;;4431476;32;20057;-67
2022/01/07 07:43:33;;;;;;;0.50;0.50;;;1.20;99.90;;;;;;4421055;32;20090;-68
2022/01/07 07:45:59;;;;;;;0.80;0.80;;;1.10;99.90;;;;;;4430862;32;21407;-67
2022/01/07 07:48:25;;;;;;;0.47;0.47;;;1.10;99.90;;;;;;4429155;32;20150;-66
2022/01/07 07:50:50;;;;;;;0.50;0.50;;;1.10;99.90;;;;;;4432342;32;20151;-67
2022/01/07 07:53:16;;;;;;;0.43;0.43;;;1.20;99.90;;;;;;4429928;32;20077;-67
2022/01/07 07:55:43;;;;;;;0.40;0.40;;;1.10;99.90;;;;;;4422551;32;20065;-66
2022/01/07 07:58:10;;;;;;;0.40;0.40;;;1.20;99.90;;;;;;4425341;32;20241;-68
2022/01/07 08:00:35;;;;;;;3.08;1.48;;;1.20;99.90;;;;;;4428275;32;20097;-67
2022/01/07 08:03:01;;;;;;;0.50;0.50;;;1.20;99.90;;;;;;4428985;32;20073;-67
2022/01/07 08:05:27;;;;;;;3.15;1.87;;;1.10;99.90;;;;;;4431692;32;20093;-66
2022/01/07 08:07:52;;;;;;;0.70;0.70;;;1.10;99.90;;;;;;4431365;32;20096;-67
2022/01/07 08:10:23;;;;;;;8.10;1.87;;;1.20;99.90;;;;;;4433496;32;20077;-67
2022/01/07 08:13:03;;;;;;;1.05;1.05;;;1.30;99.90;;;;;;4426899;32;20085;-67
2022/01/07 08:16:02;;;;;;;0.40;0.40;;;1.30;99.90;;;;;;4427611;32;20089;-68
2022/01/07 08:18:14;;;;;;;0.40;0.40;;;1.20;99.90;;;;;;4427916;32;20105;-68
2022/01/07 08:20:40;;;;;;;0.40;0.40;;;1.20;99.90;;;;;;4433595;32;20114;-68
2022/01/07 08:23:05;;;;;;;0.40;0.40;;;1.40;99.90;;;;;;4436667;32;20100;-67
2022/01/07 08:25:32;;;;;;;0.77;0.77;;;1.40;99.90;;;;;;4430299;32;20291;-67
2022/01/07 08:28:01;;;;;;;2.05;1.67;;;1.40;99.90;;;;;;4430985;32;20809;-67
2022/01/07 08:30:35;;;;;;;0.60;0.60;;;1.50;99.90;;;;;;4427569;32;20089;-67
2022/01/07 08:35:00;;;;;;;0.40;0.40;;;1.50;99.90;;;;;;4431779;32;20094;-68
2022/01/07 08:35:46;;;;;;;3.03;1.23;;;1.50;99.90;;;;;;4425211;32;20592;-67
2022/01/07 08:38:12;;;;;;;6.90;1.10;;;1.60;99.90;;;;;;4426895;32;20448;-68
2022/01/07 08:40:37;;;;;;;0.50;0.50;;;1.70;99.90;;;;;;4431364;32;20230;-67
2022/01/07 08:43:03;;;;;;;0.47;0.47;;;1.70;99.90;;;;;;4419064;32;20161;-68
2022/01/07 08:45:29;;;;;;;0.40;0.40;;;1.70;99.90;;;;;;4428190;32;20143;-67
2022/01/07 08:47:54;;;;;;;3.72;0.90;;;1.70;99.90;;;;;;4431517;32;20143;-67
2022/01/07 08:50:20;;;;;;;0.60;0.60;;;1.70;99.90;;;;;;4422412;32;20086;-68
2022/01/07 08:52:45;;;;;;;0.57;0.57;;;1.70;99.90;;;;;;4416934;32;20659;-68
2022/01/07 08:55:11;;;;;;;0.30;0.30;;;1.70;99.90;;;;;;4415427;32;20134;-68
2022/01/07 08:57:37;;;;;;;0.40;0.40;;;1.70;99.90;;;;;;4414079;32;20076;-70
2022/01/07 09:00:04;;;;;;;1.12;1.05;;;1.70;99.90;;;;;;4430001;32;20750;-68
2022/01/07 09:02:29;;;;;;;1.40;1.00;;;1.70;99.90;;;;;;4423542;32;20093;-68
2022/01/07 09:04:56;;;;;;;0.55;0.55;;;1.80;99.90;;;;;;4420793;32;20543;-68
2022/01/07 09:07:21;;;;;;;0.35;0.35;;;1.80;99.90;;;;;;4418084;32;20141;-68
2022/01/07 09:09:47;;;;;;;0.40;0.40;;;2.00;99.90;;;;;;4421101;32;20456;-68
2022/01/07 09:12:12;;;;;;;0.40;0.40;;;1.90;99.90;;;;;;4419020;32;20871;-68
2022/01/07 09:14:38;;;;;;;0.40;0.40;;;1.90;99.90;;;;;;4409008;32;20089;-66
2022/01/07 09:17:04;;;;;;;0.40;0.40;;;2.00;99.90;;;;;;4414077;32;20109;-67
2022/01/07 09:19:29;;;;;;;0.40;0.40;;;2.10;99.90;;;;;;4409411;32;20102;-67
2022/01/07 09:21:56;;;;;;;0.82;0.82;;;2.10;99.90;;;;;;4421104;32;20673;-66
2022/01/07 09:24:23;;;;;;;5.78;1.67;;;2.10;99.90;;;;;;4424831;32;20076;-66
2022/01/07 09:26:48;;;;;;;0.40;0.40;;;2.10;99.90;;;;;;4423570;32;20580;-66
2022/01/07 09:29:14;;;;;;;1.08;1.02;;;2.10;99.90;;;;;;4426064;32;20596;-66
2022/01/07 09:31:40;;;;;;;20.62;1.67;;;2.20;99.90;;;;;;4426496;32;20124;-67
2022/01/07 09:34:06;;;;;;;1.62;1.10;;;2.20;99.90;;;;;;4429261;32;20089;-67
2022/01/07 09:36:32;;;;;;;0.50;0.50;;;2.20;99.90;;;;;;4427119;32;20100;-68
2022/01/07 09:38:58;;;;;;;0.30;0.30;;;2.30;99.90;;;;;;4426106;32;20192;-67
2022/01/07 09:41:24;;;;;;;0.62;0.62;;;2.40;99.90;;;;;;4425646;32;20105;-67
2022/01/07 09:43:50;;;;;;;0.70;0.70;;;2.40;99.90;;;;;;4419007;32;20097;-67
2022/01/07 09:46:18;;;;;;;6.05;1.40;;;2.50;99.90;;;;;;4419848;32;20491;-67
2022/01/07 09:48:44;;;;;;;0.40;0.40;;;2.60;99.90;;;;;;4428517;32;20064;-66
2022/01/07 09:51:09;;;;;;;0.57;0.57;;;2.60;99.90;;;;;;4420876;32;20101;-67
2022/01/07 09:53:35;;;;;;;0.55;0.55;;;2.70;99.90;;;;;;4425624;32;20085;-66
2022/01/07 09:56:03;;;;;;;1.75;1.23;;;2.70;99.90;;;;;;4427450;32;20156;-67
2022/01/07 09:58:29;;;;;;;0.40;0.40;;;2.70;99.90;;;;;;4423436;32;20074;-67
2022/01/07 10:01:02;;;;;;;0.50;0.50;;;2.90;99.90;;;;;;4424432;32;20621;-66
2022/01/07 10:03:35;;;;;;;1.90;1.75;;;3.10;99.90;;;;;;4425785;32;20485;-66
2022/01/07 10:06:01;;;;;;;0.50;0.50;;;3.20;99.90;;;;;;4421395;32;20081;-66
2022/01/07 10:08:28;;;;;;;1.65;1.02;;;3.20;99.90;;;;;;4421124;32;20832;-66
2022/01/07 10:11:19;;;;;;;0.45;0.45;;;3.30;99.90;;;;;;4421402;32;20381;-66
2022/01/07 10:13:47;;;;;;;0.90;0.77;;;3.40;99.90;;;;;;4425127;32;20192;-67
2022/01/07 10:16:16;;;;;;;1.15;0.57;;;3.40;99.90;;;;;;4429279;32;20078;-67
2022/01/07 10:18:43;;;;;;;0.50;0.50;;;3.50;99.90;;;;;;4423490;32;20084;-67
2022/01/07 10:21:10;;;;;;;0.60;0.45;;;3.70;99.90;;;;;;4424853;32;20093;-67
2022/01/07 10:23:36;;;;;;;0.90;0.90;;;3.80;99.90;;;;;;4422892;32;20106;-67
2022/01/07 10:26:02;;;;;;;0.62;0.62;;;3.80;99.90;;;;;;4423199;32;20410;-67
2022/01/07 10:28:30;;;;;;;0.73;0.73;;;3.70;99.90;;;;;;4420321;32;21185;-68
2022/01/07 10:30:56;;;;;;;2.40;0.93;;;3.70;99.90;;;;;;4421842;32;20483;-67
2022/01/07 10:33:24;;;;;;;0.50;0.50;;;3.60;99.90;;;;;;4431529;32;20129;-68
2022/01/07 10:35:54;;;;;;;0.70;0.70;;;3.50;99.90;;;;;;4429118;32;20105;-68
2022/01/07 10:38:22;;;;;;;0.50;0.50;;;3.60;99.90;;;;;;4424915;32;20127;-67
2022/01/07 10:40:50;;;;;;;1.20;0.75;;;3.40;99.90;;;;;;4431010;32;20102;-67
2022/01/07 10:43:19;;;;;;;0.60;0.60;;;3.40;99.90;;;;;;4433991;32;20331;-67
2022/01/07 10:45:49;;;;;;;0.40;0.40;;;3.50;99.90;;;;;;4427401;32;20173;-67
2022/01/07 10:48:16;;;;;;;0.32;0.32;;;3.50;99.90;;;;;;4427663;32;20105;-67
2022/01/07 10:50:45;;;;;;;0.50;0.50;;;3.50;99.90;;;;;;4425634;32;20147;-67
2022/01/07 10:53:17;;;;;;;4.90;1.12;;;3.60;99.90;;;;;;4429514;32;20739;-67
2022/01/07 10:56:04;;;;;;;0.52;0.52;;;3.50;99.90;;;;;;4426221;32;20089;-67
2022/01/07 10:58:45;;;;;;;0.30;0.30;;;3.60;99.90;;;;;;4424762;32;21259;-67
2022/01/07 11:01:39;;;;;;;2.55;1.85;;;3.50;99.90;;;;;;4418509;32;21157;-67
2022/01/07 11:04:10;;;;;;;0.35;0.35;;;3.60;99.90;;;;;;4421111;32;20097;-67
2022/01/07 11:06:37;;;;;;;0.80;0.52;;;3.60;99.90;;;;;;4423991;32;20118;-66
2022/01/07 11:09:07;;;;;;;0.40;0.40;;;3.60;99.90;;;;;;4424214;32;20876;-68
2022/01/07 11:11:32;;;;;;;0.40;0.40;;;3.70;99.90;;;;;;4429837;32;20489;-68
2022/01/07 11:14:05;;;;;;;9.68;0.82;;;3.70;99.90;;;;;;4425371;32;20173;-68
2022/01/07 11:16:31;;;;;;;0.50;0.50;;;3.60;99.90;;;;;;4418107;32;20093;-67
2022/01/07 11:18:57;;;;;;;0.82;0.82;;;3.70;99.90;;;;;;4419799;32;20109;-67
2022/01/07 11:21:23;;;;;;;1.55;0.70;;;3.70;99.90;;;;;;4419978;32;20110;-67
2022/01/07 11:23:48;;;;;;;1.90;1.08;;;3.70;99.90;;;;;;4420592;32;20127;-67
2022/01/07 11:26:17;;;;;;;0.65;0.65;;;3.70;99.90;;;;;;4423178;32;20098;-71
2022/01/07 11:29:01;;;;;;;0.45;0.45;;;3.70;99.90;;;;;;4427341;32;20076;-67
2022/01/07 11:31:28;;;;;;;0.40;0.40;;;3.70;99.90;;;;;;4423016;32;21159;-67
2022/01/07 11:34:22;;;;;;;0.43;0.43;;;3.70;99.90;;;;;;4423050;32;21203;-67
2022/01/07 11:36:47;;;;;;;0.37;0.37;;;3.80;99.90;;;;;;4423316;32;20148;-67
2022/01/07 11:39:14;;;;;;;0.50;0.50;;;3.80;99.90;;;;;;4427538;32;20192;-67
2022/01/07 11:41:45;;;;;;;0.40;0.40;;;3.70;99.90;;;;;;4428232;32;20090;-67
2022/01/07 11:44:14;;;;;;;0.40;0.40;;;3.60;99.90;;;;;;4427600;32;20566;-67
2022/01/07 11:46:39;;;;;;;2.87;1.20;;;3.60;99.90;;;;;;4425064;32;20755;-66
2022/01/07 11:49:05;;;;;;;0.40;0.40;;;3.60;99.90;;;;;;4420631;32;20827;-67
2022/01/07 11:51:41;;;;;;;0.52;0.52;;;3.60;99.90;;;;;;4420635;32;20098;-66
2022/01/07 11:54:09;;;;;;;0.98;0.98;;;3.50;99.90;;;;;;4418388;32;20657;-66
2022/01/07 11:56:36;;;;;;;0.62;0.62;;;3.50;99.90;;;;;;4417284;32;20642;-67
2022/01/07 11:59:20;;;;;;;0.40;0.40;;;3.50;99.90;;;;;;4415782;32;21865;-67
2022/01/07 12:01:56;;;;;;;0.85;0.82;;;3.50;99.90;;;;;;4419085;32;20255;-72
2022/01/07 12:04:27;;;;;;;0.40;0.40;;;3.50;99.90;;;;;;4423735;32;20617;-65
2022/01/07 12:06:54;;;;;;;0.45;0.45;;;3.40;99.90;;;;;;4423092;32;20136;-67
2022/01/07 12:09:28;;;;;;;0.80;0.80;;;3.50;99.90;;;;;;4429706;32;20468;-67
2022/01/07 12:12:01;;;;;;;0.60;0.60;;;3.50;99.90;;;;;;4429586;32;20447;-66
2022/01/07 12:14:32;;;;;;;0.37;0.37;;;3.50;99.90;;;;;;4423378;32;20085;-67
2022/01/07 12:16:59;;;;;;;;;;;3.50;99.90;;;;;;4427248;32;20429;-67
2022/01/07 12:19:44;;;;;;;0.40;0.40;;;3.40;99.90;;;;;;4432399;32;19949;-67
2022/01/07 12:22:11;;;;;;;0.70;0.70;;;3.50;99.90;;;;;;4429891;32;20117;-67
2022/01/07 12:24:37;;;;;;;0.40;0.40;;;3.50;99.90;;;;;;4426546;32;20065;-67
2022/01/07 12:27:20;;;;;;;0.50;0.50;;;3.50;99.90;;;;;;4424107;32;20053;-67
2022/01/07 12:29:49;;;;;;;3.05;1.25;;;3.40;99.90;;;;;;4429213;32;20521;-67
2022/01/07 12:32:16;;;;;;;3.53;0.98;;;3.40;99.90;;;;;;4424710;32;20105;-67
2022/01/07 12:34:45;;;;;;;1.65;1.10;;;3.40;99.90;;;;;;4429884;32;20106;-66
2022/01/07 12:37:14;;;;;;;0.40;0.40;;;3.30;99.90;;;;;;4427456;32;20387;-67
2022/01/07 12:39:41;;;;;;;0.30;0.30;;;3.40;99.90;;;;;;4431184;32;20497;-67
2022/01/07 12:42:09;;;;;;;0.57;0.57;;;3.50;99.90;;;;;;4423817;32;20110;-66
2022/01/07 12:44:41;;;;;;;1.40;1.30;;;3.40;99.90;;;;;;4420060;32;20068;-66
2022/01/07 12:47:08;;;;;;;0.88;0.88;;;3.50;99.90;;;;;;4421861;32;20463;-66
2022/01/07 12:49:38;;;;;;;0.98;0.93;;;3.40;99.90;;;;;;4420843;32;20120;-67
2022/01/07 12:52:15;;;;;;;0.60;0.60;;;3.40;99.90;;;;;;4426897;32;20060;-68
2022/01/07 12:54:51;;;;;;;0.30;0.30;;;3.40;99.90;;;;;;4422841;32;20073;-67
2022/01/07 12:57:44;;;;;;;0.40;0.40;;;3.30;99.90;;;;;;4423978;32;20073;-68
2022/01/07 13:00:12;;;;;;;0.85;0.85;;;3.10;99.90;;;;;;4430991;32;20081;-68